Flight Track Log - Related Links

Times and Time Zones

All times are in EDT time to prevent confusion due to time zone crossing. See the N3801T flight status page for this flight to view local times or setup timezone preferences in your user account.

Time Position Orientation Groundspeed Altitude Reporting Facility
EDT Latitude Longitude Course Direction KTS MPH feet Rate Location/Type
Mon 10:34:19 AM 45.1167 -93.2000 79° East 106 122 1,700  Level Minneapolis TRACON
Mon 10:36:08 AM 45.1278 -93.1206 79° East 110 127 2,900 421 Climbing Minneapolis Center
Mon 10:37:10 AM 45.1311 -93.0686 85° East 130 150 2,900  Level Minneapolis Center
Mon 10:38:13 AM 45.1206 -93.0189 107° East 134 154 2,900 48 Level Minneapolis Center
Mon 10:39:15 AM 45.1042 -92.9733 117° Southeast 130 150 3,000 48 Climbing Minneapolis Center
Mon 10:40:17 AM 45.0889 -92.9247 114° Southeast 134 154 3,000  Level Minneapolis Center
Mon 10:41:19 AM 45.1267 -92.9003 25° Northeast 141 162 3,000 -48 Level Minneapolis Center
Mon 10:42:21 AM 45.1383 -92.9456 290° West 127 146 2,900 -97 Descending Minneapolis Center
Mon 10:43:23 AM 45.1433 -92.9908 279° West 118 136 2,800 -48 Descending Minneapolis Center
Mon 10:44:25 AM 45.1431 -93.0311 269° West 104 120 2,800 -97 Level Minneapolis Center
Mon 10:45:27 AM 45.1411 -93.0706 266° West 102 117 2,600 -242 Descending Minneapolis Center
Mon 10:46:29 AM 45.1439 -93.1108 276° West 103 119 2,300 -435 Descending Minneapolis Center
Mon 10:47:31 AM 45.1433 -93.1506 269° West 88 101 1,700 -581 Descending Minneapolis Center
Mon 10:48:33 AM 45.1456 -93.1886 275° West 97 112 1,100 -145 Descending Minneapolis Center
Mon 10:49:35 AM 45.1458 -93.2361 270° West 100 115 1,400 339 Climbing Minneapolis Center
Mon 10:50:37 AM 45.1711 -93.2478 342° North 118 136 1,800 435 Climbing Minneapolis Center
Mon 10:51:39 AM 45.2047 -93.2461 North 120 138 2,300 339 Climbing Minneapolis Center
Mon 10:52:41 AM 45.2114 -93.2992 280° West 116 133 2,500 97 Climbing Minneapolis Center
Mon 10:53:43 AM 45.2186 -93.3467 282° West 122 140 2,500 -44 Level Minneapolis Center
Mon 10:54:57 AM 45.2128 -93.3922 260° West 126 145 2,400 -44 Descending Minneapolis Center
Mon 10:56:00 AM 45.1961 -93.4428 245° Southwest 119 137 2,400  Level Minneapolis Center
Mon 10:57:02 AM 45.1886 -93.4864 256° West 124 143 2,400  Level Minneapolis Center
Mon 10:58:04 AM 45.1781 -93.5225 247° West 129 148 2,400 48 Level Minneapolis Center
Mon 10:59:06 AM 45.1492 -93.4875 139° Southeast 127 146 2,500 47 Climbing Minneapolis Center
Mon 11:00:11 AM 45.1503 -93.4367 88° East 130 150 2,500 -94 Level Minneapolis Center
Mon 11:01:13 AM 45.1478 -93.3892 94° East 123 142 2,300 -145 Descending Minneapolis Center
Mon 11:02:15 AM 45.1475 -93.3456 91° East 114 131 2,200 -387 Descending Minneapolis Center
Mon 11:03:17 AM 45.1503 -93.3003 85° East 99 114 1,500 -435 Descending Minneapolis Center
Mon 11:04:19 AM 45.1464 -93.2639 99° East 93 107 1,300 -194 Descending Minneapolis Center
Mon 11:05:21 AM 45.1456 -93.2286 92° East 92 106 1,100 -194 Descending Minneapolis Center
Mon 11:07:00 AM 45.1449 -93.2102 90° East  Level Estimated
Mon 11:14:00 AM 45.1449 -93.2102 90° East  Level Estimated

Login

Don't have an account? Register now (free) for customized features, flight alerts, and more!